sensor_id;sensor_type;location;lat;lon;timestamp;pressure;altitude;pressure_sealevel;temperature;humidity
10988;BME280;5547;42.672;23.230;2022-07-29T00:00:53;93642.50;;;14.83;88.37
10988;BME280;5547;42.672;23.230;2022-07-29T00:03:18;93669.56;;;15.01;88.19
10988;BME280;5547;42.672;23.230;2022-07-29T00:05:44;93665.25;;;14.91;88.53
10988;BME280;5547;42.672;23.230;2022-07-29T00:08:09;93676.63;;;14.95;88.80
10988;BME280;5547;42.672;23.230;2022-07-29T00:10:35;93658.09;;;14.71;88.32
10988;BME280;5547;42.672;23.230;2022-07-29T00:13:00;93676.38;;;14.89;88.70
10988;BME280;5547;42.672;23.230;2022-07-29T00:15:26;93661.91;;;14.87;88.72
10988;BME280;5547;42.672;23.230;2022-07-29T00:17:51;93661.84;;;14.90;88.44
10988;BME280;5547;42.672;23.230;2022-07-29T00:20:17;93587.22;;;14.47;87.95
10988;BME280;5547;42.672;23.230;2022-07-29T00:22:43;93632.25;;;14.81;85.80
10988;BME280;5547;42.672;23.230;2022-07-29T00:25:09;93653.50;;;15.01;85.15
10988;BME280;5547;42.672;23.230;2022-07-29T00:27:35;93589.03;;;14.50;84.75
10988;BME280;5547;42.672;23.230;2022-07-29T00:30:01;93589.72;;;14.54;84.22
10988;BME280;5547;42.672;23.230;2022-07-29T00:32:27;93647.44;;;15.13;84.95
10988;BME280;5547;42.672;23.230;2022-07-29T00:34:52;93650.28;;;15.06;84.34
10988;BME280;5547;42.672;23.230;2022-07-29T00:37:36;93656.75;;;15.09;84.40
10988;BME280;5547;42.672;23.230;2022-07-29T00:40:02;93644.97;;;14.77;85.52
10988;BME280;5547;42.672;23.230;2022-07-29T00:42:28;93583.72;;;14.34;85.82
10988;BME280;5547;42.672;23.230;2022-07-29T00:44:53;93666.88;;;14.88;86.11
10988;BME280;5547;42.672;23.230;2022-07-29T00:47:19;93645.03;;;14.74;86.03
10988;BME280;5547;42.672;23.230;2022-07-29T00:49:44;93637.47;;;14.85;85.65
10988;BME280;5547;42.672;23.230;2022-07-29T00:52:10;93625.16;;;14.75;85.37
10988;BME280;5547;42.672;23.230;2022-07-29T00:54:37;93622.47;;;14.75;86.27
10988;BME280;5547;42.672;23.230;2022-07-29T00:57:03;93637.34;;;14.76;85.90
10988;BME280;5547;42.672;23.230;2022-07-29T00:59:31;93666.00;;;14.91;86.61
10988;BME280;5547;42.672;23.230;2022-07-29T01:01:56;93644.63;;;14.75;86.58
10988;BME280;5547;42.672;23.230;2022-07-29T01:04:21;93577.47;;;14.24;87.13
10988;BME280;5547;42.672;23.230;2022-07-29T01:06:48;93642.03;;;14.71;88.20
10988;BME280;5547;42.672;23.230;2022-07-29T01:09:14;93574.13;;;14.20;88.15
10988;BME280;5547;42.672;23.230;2022-07-29T01:11:42;93642.31;;;14.61;88.57
10988;BME280;5547;42.672;23.230;2022-07-29T01:14:08;93629.03;;;14.57;88.97
10988;BME280;5547;42.672;23.230;2022-07-29T01:17:07;93631.78;;;14.54;88.78
10988;BME280;5547;42.672;23.230;2022-07-29T01:27:37;93632.03;;;14.43;89.73
10988;BME280;5547;42.672;23.230;2022-07-29T01:30:04;93617.09;;;14.29;89.97
10988;BME280;5547;42.672;23.230;2022-07-29T01:32:33;93484.13;;;13.35;90.28
10988;BME280;5547;42.672;23.230;2022-07-29T01:37:39;93625.03;;;14.33;90.51
10988;BME280;5547;42.672;23.230;2022-07-29T01:40:14;93609.59;;;14.07;90.52
10988;BME280;5547;42.672;23.230;2022-07-29T01:42:49;93572.16;;;13.91;90.63
10988;BME280;5547;42.672;23.230;2022-07-29T01:45:20;93640.75;;;14.31;90.54
10988;BME280;5547;42.672;23.230;2022-07-29T01:50:33;93633.38;;;14.18;91.13
10988;BME280;5547;42.672;23.230;2022-07-29T01:53:04;93631.38;;;14.22;91.25
10988;BME280;5547;42.672;23.230;2022-07-29T01:55:34;93629.28;;;14.30;92.00
10988;BME280;5547;42.672;23.230;2022-07-29T01:58:00;93624.78;;;14.27;91.98
10988;BME280;5547;42.672;23.230;2022-07-29T02:00:29;93614.81;;;14.27;91.89
10988;BME280;5547;42.672;23.230;2022-07-29T02:02:58;93615.91;;;14.30;92.38
10988;BME280;5547;42.672;23.230;2022-07-29T02:05:26;93567.38;;;13.99;91.98
10988;BME280;5547;42.672;23.230;2022-07-29T02:07:52;93609.03;;;14.45;92.06
10988;BME280;5547;42.672;23.230;2022-07-29T02:10:22;93536.72;;;14.03;91.79
10988;BME280;5547;42.672;23.230;2022-07-29T02:12:49;93564.50;;;14.22;91.97
10988;BME280;5547;42.672;23.230;2022-07-29T02:15:16;93580.34;;;14.46;91.93
10988;BME280;5547;42.672;23.230;2022-07-29T02:17:46;93542.34;;;14.22;91.66
10988;BME280;5547;42.672;23.230;2022-07-29T02:20:14;93607.75;;;14.66;91.39
10988;BME280;5547;42.672;23.230;2022-07-29T02:22:42;93609.34;;;14.64;91.06
10988;BME280;5547;42.672;23.230;2022-07-29T02:25:10;93554.75;;;14.45;90.79
10988;BME280;5547;42.672;23.230;2022-07-29T02:27:36;93587.19;;;14.63;90.64
10988;BME280;5547;42.672;23.230;2022-07-29T02:30:03;93565.53;;;14.58;90.55
10988;BME280;5547;42.672;23.230;2022-07-29T02:32:31;93607.69;;;14.83;91.03
10988;BME280;5547;42.672;23.230;2022-07-29T02:34:58;93592.06;;;14.81;91.68
10988;BME280;5547;42.672;23.230;2022-07-29T02:37:24;93588.22;;;14.82;90.82
10988;BME280;5547;42.672;23.230;2022-07-29T02:39:52;93587.78;;;14.84;90.37
10988;BME280;5547;42.672;23.230;2022-07-29T02:42:21;93574.41;;;14.84;90.53
10988;BME280;5547;42.672;23.230;2022-07-29T02:44:47;93552.59;;;14.69;89.86
10988;BME280;5547;42.672;23.230;2022-07-29T02:47:17;93579.75;;;14.84;89.91
10988;BME280;5547;42.672;23.230;2022-07-29T02:50:04;93549.91;;;14.56;90.25
10988;BME280;5547;42.672;23.230;2022-07-29T02:55:24;93579.19;;;14.76;90.37
10988;BME280;5547;42.672;23.230;2022-07-29T02:57:56;93583.78;;;14.76;90.31
10988;BME280;5547;42.672;23.230;2022-07-29T03:00:31;93545.34;;;14.53;90.61
10988;BME280;5547;42.672;23.230;2022-07-29T03:02:59;93580.91;;;14.70;90.62
10988;BME280;5547;42.672;23.230;2022-07-29T03:05:26;93595.63;;;14.62;90.86
10988;BME280;5547;42.672;23.230;2022-07-29T03:08:02;93574.97;;;14.46;90.21
10988;BME280;5547;42.672;23.230;2022-07-29T03:10:29;93590.97;;;14.49;90.85
10988;BME280;5547;42.672;23.230;2022-07-29T03:12:56;93598.09;;;14.56;90.86
10988;BME280;5547;42.672;23.230;2022-07-29T03:15:23;93596.72;;;14.48;91.09
10988;BME280;5547;42.672;23.230;2022-07-29T03:17:49;93541.72;;;14.01;91.02
10988;BME280;5547;42.672;23.230;2022-07-29T03:20:16;93547.47;;;14.00;91.03
10988;BME280;5547;42.672;23.230;2022-07-29T03:22:43;93600.63;;;14.31;91.25
10988;BME280;5547;42.672;23.230;2022-07-29T03:25:13;93603.28;;;14.31;92.02
10988;BME280;5547;42.672;23.230;2022-07-29T03:27:39;93559.19;;;14.06;91.50
10988;BME280;5547;42.672;23.230;2022-07-29T03:30:06;93553.19;;;13.85;91.34
10988;BME280;5547;42.672;23.230;2022-07-29T03:32:32;93608.50;;;14.21;91.48
10988;BME280;5547;42.672;23.230;2022-07-29T03:34:57;93564.38;;;13.97;91.57
10988;BME280;5547;42.672;23.230;2022-07-29T03:37:23;93593.59;;;14.20;91.56
10988;BME280;5547;42.672;23.230;2022-07-29T03:39:49;93611.06;;;14.25;91.63
10988;BME280;5547;42.672;23.230;2022-07-29T03:42:19;93590.75;;;14.11;91.57
10988;BME280;5547;42.672;23.230;2022-07-29T03:44:47;93578.47;;;14.14;91.71
10988;BME280;5547;42.672;23.230;2022-07-29T03:47:15;93605.47;;;14.36;91.76
10988;BME280;5547;42.672;23.230;2022-07-29T03:49:42;93557.84;;;14.14;91.57
10988;BME280;5547;42.672;23.230;2022-07-29T03:52:09;93535.97;;;14.03;91.23
10988;BME280;5547;42.672;23.230;2022-07-29T03:54:35;93535.44;;;14.08;90.64
10988;BME280;5547;42.672;23.230;2022-07-29T03:57:02;93601.38;;;14.77;90.79
10988;BME280;5547;42.672;23.230;2022-07-29T03:59:30;93590.56;;;14.80;91.23
10988;BME280;5547;42.672;23.230;2022-07-29T04:01:58;93600.31;;;14.87;90.81
10988;BME280;5547;42.672;23.230;2022-07-29T04:04:25;93610.81;;;15.23;90.76
10988;BME280;5547;42.672;23.230;2022-07-29T04:06:50;93563.94;;;15.02;89.30
10988;BME280;5547;42.672;23.230;2022-07-29T04:09:16;93604.50;;;15.68;90.08
10988;BME280;5547;42.672;23.230;2022-07-29T04:11:42;93579.84;;;15.61;88.23
10988;BME280;5547;42.672;23.230;2022-07-29T04:14:07;93614.81;;;16.08;88.32
10988;BME280;5547;42.672;23.230;2022-07-29T04:16:33;93610.38;;;16.27;84.00
10988;BME280;5547;42.672;23.230;2022-07-29T04:18:58;93607.94;;;16.55;83.90
10988;BME280;5547;42.672;23.230;2022-07-29T04:21:24;93543.47;;;16.33;82.05
10988;BME280;5547;42.672;23.230;2022-07-29T04:23:50;93609.94;;;16.98;82.23
10988;BME280;5547;42.672;23.230;2022-07-29T04:26:19;93583.06;;;16.98;81.08
10988;BME280;5547;42.672;23.230;2022-07-29T04:28:45;93620.78;;;17.39;80.58
10988;BME280;5547;42.672;23.230;2022-07-29T04:31:12;93620.31;;;17.31;78.75
10988;BME280;5547;42.672;23.230;2022-07-29T04:33:38;93583.88;;;17.08;78.27
10988;BME280;5547;42.672;23.230;2022-07-29T04:36:04;93613.75;;;17.10;79.89
10988;BME280;5547;42.672;23.230;2022-07-29T04:38:30;93604.13;;;17.00;80.64
10988;BME280;5547;42.672;23.230;2022-07-29T04:40:55;93613.25;;;17.25;80.93
10988;BME280;5547;42.672;23.230;2022-07-29T04:43:21;93556.03;;;17.24;80.97
10988;BME280;5547;42.672;23.230;2022-07-29T04:45:46;93629.78;;;18.17;78.42
10988;BME280;5547;42.672;23.230;2022-07-29T04:48:12;93559.66;;;17.71;78.28
10988;BME280;5547;42.672;23.230;2022-07-29T04:50:38;93631.31;;;18.36;77.49
10988;BME280;5547;42.672;23.230;2022-07-29T04:53:04;93573.72;;;18.34;75.64
10988;BME280;5547;42.672;23.230;2022-07-29T04:55:30;93604.13;;;18.62;76.35
10988;BME280;5547;42.672;23.230;2022-07-29T04:57:55;93637.94;;;18.54;74.31
10988;BME280;5547;42.672;23.230;2022-07-29T05:00:21;93554.66;;;17.82;74.02
10988;BME280;5547;42.672;23.230;2022-07-29T05:02:48;93626.59;;;18.00;75.72
10988;BME280;5547;42.672;23.230;2022-07-29T05:05:14;93636.38;;;18.25;74.56
10988;BME280;5547;42.672;23.230;2022-07-29T05:07:39;93640.91;;;18.37;75.19
10988;BME280;5547;42.672;23.230;2022-07-29T05:10:05;93543.34;;;18.05;75.82
10988;BME280;5547;42.672;23.230;2022-07-29T05:12:30;93641.28;;;18.85;73.21
10988;BME280;5547;42.672;23.230;2022-07-29T05:14:56;93578.97;;;18.46;72.25
10988;BME280;5547;42.672;23.230;2022-07-29T05:17:21;93573.91;;;18.58;71.88
10988;BME280;5547;42.672;23.230;2022-07-29T05:19:47;93644.84;;;19.28;71.28
10988;BME280;5547;42.672;23.230;2022-07-29T05:22:12;93637.38;;;19.23;70.74
10988;BME280;5547;42.672;23.230;2022-07-29T05:24:37;93646.38;;;19.20;71.64
10988;BME280;5547;42.672;23.230;2022-07-29T05:27:03;93588.81;;;19.33;72.27
10988;BME280;5547;42.672;23.230;2022-07-29T05:29:29;93635.88;;;19.83;69.58
10988;BME280;5547;42.672;23.230;2022-07-29T05:31:54;93638.00;;;20.12;69.59
10988;BME280;5547;42.672;23.230;2022-07-29T05:34:19;93591.28;;;19.97;67.66
10988;BME280;5547;42.672;23.230;2022-07-29T05:36:45;93619.97;;;20.19;68.81
10988;BME280;5547;42.672;23.230;2022-07-29T05:39:11;93532.75;;;19.79;67.33
10988;BME280;5547;42.672;23.230;2022-07-29T05:41:38;93642.47;;;20.49;67.72
10988;BME280;5547;42.672;23.230;2022-07-29T05:44:03;93641.78;;;20.63;67.77
10988;BME280;5547;42.672;23.230;2022-07-29T05:46:29;93644.38;;;20.58;68.50
10988;BME280;5547;42.672;23.230;2022-07-29T05:48:54;93650.09;;;20.60;65.66
10988;BME280;5547;42.672;23.230;2022-07-29T05:51:20;93640.88;;;20.66;66.66
10988;BME280;5547;42.672;23.230;2022-07-29T05:53:45;93494.88;;;19.64;67.90
10988;BME280;5547;42.672;23.230;2022-07-29T05:56:11;93654.41;;;20.66;64.79
10988;BME280;5547;42.672;23.230;2022-07-29T05:58:36;93654.69;;;20.68;66.68
10988;BME280;5547;42.672;23.230;2022-07-29T06:01:02;93645.50;;;20.42;67.52
10988;BME280;5547;42.672;23.230;2022-07-29T06:03:28;93654.56;;;20.63;66.80
10988;BME280;5547;42.672;23.230;2022-07-29T06:05:54;93659.63;;;20.70;65.96
10988;BME280;5547;42.672;23.230;2022-07-29T06:08:19;93661.75;;;21.05;64.50
10988;BME280;5547;42.672;23.230;2022-07-29T06:10:45;93623.09;;;20.50;64.27
10988;BME280;5547;42.672;23.230;2022-07-29T06:13:11;93663.69;;;20.89;65.39
10988;BME280;5547;42.672;23.230;2022-07-29T06:15:36;93644.91;;;21.25;63.39
10988;BME280;5547;42.672;23.230;2022-07-29T06:18:02;93657.00;;;21.53;66.26
10988;BME280;5547;42.672;23.230;2022-07-29T06:20:28;93658.66;;;21.36;62.95
10988;BME280;5547;42.672;23.230;2022-07-29T06:22:55;93661.09;;;21.49;65.87
10988;BME280;5547;42.672;23.230;2022-07-29T06:25:20;93587.84;;;21.23;63.76
10988;BME280;5547;42.672;23.230;2022-07-29T06:27:46;93659.16;;;21.64;63.58
10988;BME280;5547;42.672;23.230;2022-07-29T06:30:12;93599.78;;;21.31;64.18
10988;BME280;5547;42.672;23.230;2022-07-29T06:32:37;93658.94;;;21.82;64.76
10988;BME280;5547;42.672;23.230;2022-07-29T06:35:03;93649.44;;;21.72;64.63
10988;BME280;5547;42.672;23.230;2022-07-29T06:37:28;93653.63;;;21.88;64.24
10988;BME280;5547;42.672;23.230;2022-07-29T06:39:54;93661.72;;;22.03;62.07
10988;BME280;5547;42.672;23.230;2022-07-29T06:42:44;93612.53;;;21.90;61.75
10988;BME280;5547;42.672;23.230;2022-07-29T06:45:11;93633.53;;;21.95;61.66
10988;BME280;5547;42.672;23.230;2022-07-29T06:47:37;93649.16;;;22.20;61.07
10988;BME280;5547;42.672;23.230;2022-07-29T06:50:03;93624.31;;;21.72;60.61
10988;BME280;5547;42.672;23.230;2022-07-29T06:52:29;93654.28;;;21.98;60.80
10988;BME280;5547;42.672;23.230;2022-07-29T06:54:54;93560.63;;;21.41;62.15
10988;BME280;5547;42.672;23.230;2022-07-29T06:57:20;93551.66;;;21.50;61.34
10988;BME280;5547;42.672;23.230;2022-07-29T06:59:46;93576.44;;;21.78;61.35
10988;BME280;5547;42.672;23.230;2022-07-29T07:02:12;93644.63;;;22.47;61.62
10988;BME280;5547;42.672;23.230;2022-07-29T07:04:37;93646.13;;;22.48;62.64
10988;BME280;5547;42.672;23.230;2022-07-29T07:07:03;93605.69;;;22.09;58.91
10988;BME280;5547;42.672;23.230;2022-07-29T07:09:28;93636.91;;;22.40;57.50
10988;BME280;5547;42.672;23.230;2022-07-29T07:11:53;93589.34;;;22.03;57.92
10988;BME280;5547;42.672;23.230;2022-07-29T07:14:19;93646.41;;;22.71;58.41
10988;BME280;5547;42.672;23.230;2022-07-29T07:16:44;93630.56;;;22.63;59.99
10988;BME280;5547;42.672;23.230;2022-07-29T07:19:10;93618.09;;;22.72;56.44
10988;BME280;5547;42.672;23.230;2022-07-29T07:21:35;93488.59;;;21.99;55.50
10988;BME280;5547;42.672;23.230;2022-07-29T07:24:01;93579.38;;;22.71;58.67
10988;BME280;5547;42.672;23.230;2022-07-29T07:26:27;93601.50;;;23.11;56.52
10988;BME280;5547;42.672;23.230;2022-07-29T07:28:53;93590.16;;;22.86;56.28
10988;BME280;5547;42.672;23.230;2022-07-29T07:31:18;93628.13;;;23.06;55.78
10988;BME280;5547;42.672;23.230;2022-07-29T07:33:44;93608.31;;;23.00;55.54
10988;BME280;5547;42.672;23.230;2022-07-29T07:36:09;93644.59;;;23.29;56.09
10988;BME280;5547;42.672;23.230;2022-07-29T07:38:35;93632.22;;;23.22;57.87
10988;BME280;5547;42.672;23.230;2022-07-29T07:41:01;93550.50;;;22.68;56.05
10988;BME280;5547;42.672;23.230;2022-07-29T07:43:26;93553.81;;;22.78;57.21
10988;BME280;5547;42.672;23.230;2022-07-29T07:45:52;93643.88;;;23.28;57.73
10988;BME280;5547;42.672;23.230;2022-07-29T07:48:18;93592.34;;;23.08;59.72
10988;BME280;5547;42.672;23.230;2022-07-29T07:50:43;93651.28;;;23.80;55.63
10988;BME280;5547;42.672;23.230;2022-07-29T07:53:09;93610.03;;;23.24;54.69
10988;BME280;5547;42.672;23.230;2022-07-29T07:55:39;93647.09;;;23.59;58.13
10988;BME280;5547;42.672;23.230;2022-07-29T07:58:05;93639.28;;;23.40;56.91
10988;BME280;5547;42.672;23.230;2022-07-29T08:00:31;93564.88;;;23.21;58.04
10988;BME280;5547;42.672;23.230;2022-07-29T08:02:57;93633.53;;;23.85;55.71
10988;BME280;5547;42.672;23.230;2022-07-29T08:05:23;93642.16;;;23.83;55.12
10988;BME280;5547;42.672;23.230;2022-07-29T08:07:49;93630.31;;;24.18;55.63
10988;BME280;5547;42.672;23.230;2022-07-29T08:10:18;93615.97;;;24.18;57.52
10988;BME280;5547;42.672;23.230;2022-07-29T08:13:08;93585.09;;;23.78;55.94
10988;BME280;5547;42.672;23.230;2022-07-29T08:15:34;93600.88;;;24.11;56.06
10988;BME280;5547;42.672;23.230;2022-07-29T08:18:00;93565.47;;;24.00;55.94
10988;BME280;5547;42.672;23.230;2022-07-29T08:20:25;93644.69;;;24.67;51.68
10988;BME280;5547;42.672;23.230;2022-07-29T08:22:51;93630.78;;;24.54;53.61
10988;BME280;5547;42.672;23.230;2022-07-29T08:25:18;93621.13;;;24.53;53.16
10988;BME280;5547;42.672;23.230;2022-07-29T08:27:48;93582.22;;;24.36;55.16
10988;BME280;5547;42.672;23.230;2022-07-29T08:30:13;93594.81;;;24.33;51.15
10988;BME280;5547;42.672;23.230;2022-07-29T08:32:39;93641.81;;;24.88;53.78
10988;BME280;5547;42.672;23.230;2022-07-29T08:35:05;93635.88;;;24.95;53.38
10988;BME280;5547;42.672;23.230;2022-07-29T08:37:31;93594.22;;;24.61;52.73
10988;BME280;5547;42.672;23.230;2022-07-29T08:39:56;93641.06;;;24.93;52.31
10988;BME280;5547;42.672;23.230;2022-07-29T08:42:21;93613.06;;;24.76;53.08
10988;BME280;5547;42.672;23.230;2022-07-29T08:44:48;93638.34;;;24.82;51.14
10988;BME280;5547;42.672;23.230;2022-07-29T08:47:14;93635.41;;;24.97;50.56
10988;BME280;5547;42.672;23.230;2022-07-29T08:49:39;93631.00;;;25.05;51.21
10988;BME280;5547;42.672;23.230;2022-07-29T08:52:05;93632.97;;;25.10;51.09
10988;BME280;5547;42.672;23.230;2022-07-29T08:54:31;93628.59;;;25.46;49.19
10988;BME280;5547;42.672;23.230;2022-07-29T08:56:57;93630.34;;;25.55;53.42
10988;BME280;5547;42.672;23.230;2022-07-29T08:59:25;93623.19;;;25.69;48.24
10988;BME280;5547;42.672;23.230;2022-07-29T09:01:53;93616.75;;;25.94;50.00
10988;BME280;5547;42.672;23.230;2022-07-29T09:04:20;93564.75;;;25.47;48.68
10988;BME280;5547;42.672;23.230;2022-07-29T09:06:51;93629.88;;;25.62;49.98
10988;BME280;5547;42.672;23.230;2022-07-29T09:09:17;93560.03;;;25.20;51.29
10988;BME280;5547;42.672;23.230;2022-07-29T09:11:42;93615.72;;;25.41;47.45
10988;BME280;5547;42.672;23.230;2022-07-29T09:14:11;93538.41;;;24.88;48.83
10988;BME280;5547;42.672;23.230;2022-07-29T09:16:44;93614.75;;;25.78;49.17
10988;BME280;5547;42.672;23.230;2022-07-29T09:19:26;93438.97;;;24.53;48.45
10988;BME280;5547;42.672;23.230;2022-07-29T09:21:52;93608.84;;;25.96;47.52
10988;BME280;5547;42.672;23.230;2022-07-29T09:24:26;93600.91;;;26.10;47.88
10988;BME280;5547;42.672;23.230;2022-07-29T09:26:52;93620.63;;;26.50;49.17
10988;BME280;5547;42.672;23.230;2022-07-29T09:29:20;93616.69;;;26.56;48.19
10988;BME280;5547;42.672;23.230;2022-07-29T09:31:49;93616.22;;;26.35;47.85
10988;BME280;5547;42.672;23.230;2022-07-29T09:34:17;93619.91;;;26.49;48.99
10988;BME280;5547;42.672;23.230;2022-07-29T09:36:47;93588.69;;;26.39;47.52
10988;BME280;5547;42.672;23.230;2022-07-29T09:39:14;93497.63;;;25.67;47.06
10988;BME280;5547;42.672;23.230;2022-07-29T09:41:51;93614.22;;;26.41;47.63
10988;BME280;5547;42.672;23.230;2022-07-29T09:44:18;93560.25;;;26.12;44.97
10988;BME280;5547;42.672;23.230;2022-07-29T09:49:23;93596.00;;;26.78;45.38
10988;BME280;5547;42.672;23.230;2022-07-29T09:51:59;93581.44;;;26.64;46.40
10988;BME280;5547;42.672;23.230;2022-07-29T09:54:27;93605.59;;;26.96;46.27
10988;BME280;5547;42.672;23.230;2022-07-29T09:56:54;93596.88;;;27.03;44.88
10988;BME280;5547;42.672;23.230;2022-07-29T09:59:20;93593.56;;;26.74;48.17
10988;BME280;5547;42.672;23.230;2022-07-29T10:01:49;93595.59;;;26.63;46.26
10988;BME280;5547;42.672;23.230;2022-07-29T10:04:15;93595.97;;;26.89;44.77
10988;BME280;5547;42.672;23.230;2022-07-29T10:07:00;93592.63;;;26.60;43.33
10988;BME280;5547;42.672;23.230;2022-07-29T10:09:26;93509.28;;;26.59;43.12
10988;BME280;5547;42.672;23.230;2022-07-29T10:12:10;93575.50;;;27.13;43.52
10988;BME280;5547;42.672;23.230;2022-07-29T10:14:39;93421.34;;;26.36;42.71
10988;BME280;5547;42.672;23.230;2022-07-29T10:17:06;93571.03;;;27.51;44.99
10988;BME280;5547;42.672;23.230;2022-07-29T10:19:33;93406.41;;;26.07;45.01
10988;BME280;5547;42.672;23.230;2022-07-29T10:22:00;93571.31;;;27.48;47.05
10988;BME280;5547;42.672;23.230;2022-07-29T10:24:27;93550.59;;;27.28;45.18
10988;BME280;5547;42.672;23.230;2022-07-29T10:26:57;93564.59;;;27.13;44.04
10988;BME280;5547;42.672;23.230;2022-07-29T10:29:24;93571.31;;;27.06;47.11
10988;BME280;5547;42.672;23.230;2022-07-29T10:34:27;93563.38;;;27.44;46.22
10988;BME280;5547;42.672;23.230;2022-07-29T10:37:18;93565.00;;;27.64;44.49
10988;BME280;5547;42.672;23.230;2022-07-29T10:40:17;93559.19;;;27.43;43.84
10988;BME280;5547;42.672;23.230;2022-07-29T10:43:16;93524.59;;;27.15;43.46
10988;BME280;5547;42.672;23.230;2022-07-29T10:45:45;93528.25;;;27.29;46.14
10988;BME280;5547;42.672;23.230;2022-07-29T10:48:11;93544.13;;;27.91;43.73
10988;BME280;5547;42.672;23.230;2022-07-29T10:50:57;93507.94;;;27.79;42.45
10988;BME280;5547;42.672;23.230;2022-07-29T10:53:24;93534.22;;;27.88;40.68
10988;BME280;5547;42.672;23.230;2022-07-29T10:55:51;93513.63;;;27.57;44.18
10988;BME280;5547;42.672;23.230;2022-07-29T10:58:22;93381.34;;;26.92;42.84
10988;BME280;5547;42.672;23.230;2022-07-29T11:00:52;93512.44;;;27.77;41.31
10988;BME280;5547;42.672;23.230;2022-07-29T11:06:06;93530.72;;;28.18;43.49
10988;BME280;5547;42.672;23.230;2022-07-29T11:08:31;93472.63;;;27.87;45.15
10988;BME280;5547;42.672;23.230;2022-07-29T11:11:36;93521.78;;;28.36;42.13
10988;BME280;5547;42.672;23.230;2022-07-29T11:14:02;93518.38;;;28.30;41.29
10988;BME280;5547;42.672;23.230;2022-07-29T11:17:03;93517.94;;;28.26;45.65
10988;BME280;5547;42.672;23.230;2022-07-29T11:19:29;93518.13;;;28.09;41.62
10988;BME280;5547;42.672;23.230;2022-07-29T11:21:55;93477.34;;;28.11;42.41
10988;BME280;5547;42.672;23.230;2022-07-29T11:24:26;93502.78;;;28.49;43.54
10988;BME280;5547;42.672;23.230;2022-07-29T11:29:31;93484.72;;;28.16;42.22
10988;BME280;5547;42.672;23.230;2022-07-29T11:32:09;93506.84;;;28.37;41.18
10988;BME280;5547;42.672;23.230;2022-07-29T11:34:36;93462.50;;;28.25;41.26
10988;BME280;5547;42.672;23.230;2022-07-29T11:39:41;93509.13;;;28.58;41.67
10988;BME280;5547;42.672;23.230;2022-07-29T11:45:05;93472.72;;;28.44;42.62
10988;BME280;5547;42.672;23.230;2022-07-29T11:47:41;93496.03;;;28.69;41.02
10988;BME280;5547;42.672;23.230;2022-07-29T11:50:12;93492.47;;;28.56;39.17
10988;BME280;5547;42.672;23.230;2022-07-29T11:52:40;93499.34;;;28.81;40.81
10988;BME280;5547;42.672;23.230;2022-07-29T11:55:13;93500.19;;;29.14;41.29
10988;BME280;5547;42.672;23.230;2022-07-29T11:57:54;93499.06;;;29.36;40.20
10988;BME280;5547;42.672;23.230;2022-07-29T12:00:27;93499.00;;;29.42;39.73
10988;BME280;5547;42.672;23.230;2022-07-29T12:02:54;93487.72;;;29.13;38.95
10988;BME280;5547;42.672;23.230;2022-07-29T12:05:21;93430.22;;;28.43;40.84
10988;BME280;5547;42.672;23.230;2022-07-29T12:07:47;93486.56;;;29.08;37.77
10988;BME280;5547;42.672;23.230;2022-07-29T12:10:13;93493.72;;;28.92;39.40
10988;BME280;5547;42.672;23.230;2022-07-29T12:12:39;93481.00;;;29.14;40.21
10988;BME280;5547;42.672;23.230;2022-07-29T12:17:37;93496.06;;;29.53;38.00
10988;BME280;5547;42.672;23.230;2022-07-29T12:20:04;93493.59;;;29.36;37.29
10988;BME280;5547;42.672;23.230;2022-07-29T12:22:35;93488.84;;;29.37;37.75
10988;BME280;5547;42.672;23.230;2022-07-29T12:25:06;93489.75;;;29.58;37.31
10988;BME280;5547;42.672;23.230;2022-07-29T12:27:32;93465.66;;;29.70;37.87
10988;BME280;5547;42.672;23.230;2022-07-29T12:29:59;93479.06;;;29.87;37.34
10988;BME280;5547;42.672;23.230;2022-07-29T12:32:41;93485.50;;;30.03;37.30
10988;BME280;5547;42.672;23.230;2022-07-29T12:35:18;93480.91;;;29.65;36.81
10988;BME280;5547;42.672;23.230;2022-07-29T12:37:47;93484.75;;;29.76;37.74
10988;BME280;5547;42.672;23.230;2022-07-29T12:40:16;93447.97;;;29.39;38.80
10988;BME280;5547;42.672;23.230;2022-07-29T12:45:37;93468.53;;;29.91;36.15
10988;BME280;5547;42.672;23.230;2022-07-29T12:48:04;93462.63;;;30.00;36.21
10988;BME280;5547;42.672;23.230;2022-07-29T12:50:30;93471.38;;;30.12;37.27
10988;BME280;5547;42.672;23.230;2022-07-29T12:53:17;93466.28;;;29.76;37.36
10988;BME280;5547;42.672;23.230;2022-07-29T12:55:46;93471.34;;;29.85;37.81
10988;BME280;5547;42.672;23.230;2022-07-29T12:58:33;93465.63;;;29.57;35.78
10988;BME280;5547;42.672;23.230;2022-07-29T13:01:14;93463.09;;;29.59;36.88
10988;BME280;5547;42.672;23.230;2022-07-29T13:03:59;93450.69;;;29.84;35.74
10988;BME280;5547;42.672;23.230;2022-07-29T13:06:35;93448.53;;;29.64;35.68
10988;BME280;5547;42.672;23.230;2022-07-29T13:11:39;93445.53;;;29.67;37.17
10988;BME280;5547;42.672;23.230;2022-07-29T13:14:05;93438.44;;;29.85;37.00
10988;BME280;5547;42.672;23.230;2022-07-29T13:16:31;93431.78;;;29.54;36.23
10988;BME280;5547;42.672;23.230;2022-07-29T13:19:08;93445.44;;;29.86;36.83
10988;BME280;5547;42.672;23.230;2022-07-29T13:21:35;93445.47;;;29.54;34.56
10988;BME280;5547;42.672;23.230;2022-07-29T13:24:01;93241.59;;;28.18;37.28
10988;BME280;5547;42.672;23.230;2022-07-29T13:26:26;93436.63;;;29.61;36.72
10988;BME280;5547;42.672;23.230;2022-07-29T13:28:53;93436.53;;;29.53;35.22
10988;BME280;5547;42.672;23.230;2022-07-29T13:31:18;93424.16;;;29.33;36.39
10988;BME280;5547;42.672;23.230;2022-07-29T13:33:44;93436.94;;;29.44;37.37
10988;BME280;5547;42.672;23.230;2022-07-29T13:36:09;93381.81;;;29.35;35.47
10988;BME280;5547;42.672;23.230;2022-07-29T13:38:35;93418.22;;;29.88;34.57
10988;BME280;5547;42.672;23.230;2022-07-29T13:41:00;93421.06;;;29.69;37.34
10988;BME280;5547;42.672;23.230;2022-07-29T13:43:26;93386.66;;;29.28;36.80
10988;BME280;5547;42.672;23.230;2022-07-29T13:45:51;93373.91;;;29.31;38.04